Ballarat, Victoria

6:23 PM AEDT on February 07, 2016 (GMT +1100)
Bunkers Hill | | Change Station
CLOSE
Current Station
Personal Weather Station
Location: Bunkers Hill, VICTORIA
Elevation: 1388 ft
Nearby Weather Stations

Elev 1388 ft 37.56 °S, 143.76 °E | Updated 1 second ago

Clear
Clear
85.3 °F
Feels Like 82 °F
N
13.0
Wind Variable Wind from SSE
Gusts 15.0 mph

Today
High -- | Low -- °F
--% Chance of Precip.
Yesterday
High -- | Low -- °F
Precip. -- in
Pressure 30.01 in
Visibility -9999.0 miles
Clouds
Heat Index 82 °F
Dew Point 27 °F
Humidity 12%
Rainfall 0.00 in
Snow Depth Not available.
6:44 AM 8:32 PM
Waning Crescent, 2% visible
METAR YMML 070700Z 17015KT CAVOK 26/13 Q1016 NOSIG
Pressure 30.01 in
Visibility -9999.0 miles
Clouds
Heat Index 82 °F
Dew Point 27 °F
Humidity 12%
Rainfall 0.00 in
Snow Depth Not available.
6:44 AM 8:32 PM
Waning Crescent, 2% visible
METAR YMML 070700Z 17015KT CAVOK 26/13 Q1016 NOSIG

10-Day Weather Forecast

Almanac

Astronomy

Feb. 07, 2016 Rise Set
Actual Time
Civil Twilight
Nautical Twilight
Astronomical Twilight
Moon
Length of Visible Light
Length of Day
Tomorrow will be .
, % of the Moon is Illuminated

Today's Extremes

Country Highs Country Lows

Community

WunderPhotos

Upload Photos

1,891,171 photos uploaded!

WunderBlog® & News

Nearby

Air Quality

  Air Quality AQ Index Pollutant
Not available.

Snow Depth

Station Depth Elevation

Earthquake Activity

City Distance Mag. Time & Date
Minimum magnitude displayed is 2.5.

Coastal Water Temperatures

Place Temperature

Stations

Nearby Weather Stations

Station Location Temp. Windchill Dew Point Humidity Wind Precip. Elev Updated Type